sensor_id;sensor_type;location;lat;lon;timestamp;P1;durP1;ratioP1;P2;durP2;ratioP2
58408;SDS011;44202;52.730;6.470;2022-09-09T00:00:29;9.43;;;5.78;;
58408;SDS011;44202;52.730;6.470;2022-09-09T00:08:31;8.80;;;5.68;;
58408;SDS011;44202;52.730;6.470;2022-09-09T00:11:16;11.88;;;5.97;;
58408;SDS011;44202;52.730;6.470;2022-09-09T00:14:32;9.48;;;5.75;;
58408;SDS011;44202;52.730;6.470;2022-09-09T00:16:55;9.63;;;5.55;;
58408;SDS011;44202;52.730;6.470;2022-09-09T00:22:16;11.65;;;6.25;;
58408;SDS011;44202;52.730;6.470;2022-09-09T00:24:46;11.65;;;5.90;;
58408;SDS011;44202;52.730;6.470;2022-09-09T00:32:37;10.00;;;5.82;;
58408;SDS011;44202;52.730;6.470;2022-09-09T00:35:04;10.82;;;6.35;;
58408;SDS011;44202;52.730;6.470;2022-09-09T00:37:41;8.45;;;5.55;;
58408;SDS011;44202;52.730;6.470;2022-09-09T00:40:31;9.80;;;5.43;;
58408;SDS011;44202;52.730;6.470;2022-09-09T00:43:12;12.52;;;5.72;;
58408;SDS011;44202;52.730;6.470;2022-09-09T00:46:13;9.90;;;5.82;;
58408;SDS011;44202;52.730;6.470;2022-09-09T00:57:32;13.57;;;5.90;;
58408;SDS011;44202;52.730;6.470;2022-09-09T01:00:16;19.33;;;6.78;;
58408;SDS011;44202;52.730;6.470;2022-09-09T01:08:00;13.88;;;7.32;;
58408;SDS011;44202;52.730;6.470;2022-09-09T01:10:42;11.30;;;7.03;;
58408;SDS011;44202;52.730;6.470;2022-09-09T01:13:25;8.27;;;6.40;;
58408;SDS011;44202;52.730;6.470;2022-09-09T01:15:55;10.82;;;6.35;;
58408;SDS011;44202;52.730;6.470;2022-09-09T01:18:26;10.90;;;6.38;;
58408;SDS011;44202;52.730;6.470;2022-09-09T01:26:46;27.73;;;10.38;;
58408;SDS011;44202;52.730;6.470;2022-09-09T01:29:14;33.95;;;11.32;;
58408;SDS011;44202;52.730;6.470;2022-09-09T01:31:42;51.13;;;12.38;;
58408;SDS011;44202;52.730;6.470;2022-09-09T01:34:21;48.65;;;12.02;;
58408;SDS011;44202;52.730;6.470;2022-09-09T01:39:17;23.05;;;8.60;;
58408;SDS011;44202;52.730;6.470;2022-09-09T01:41:44;39.97;;;12.82;;
58408;SDS011;44202;52.730;6.470;2022-09-09T01:44:10;32.15;;;9.88;;
58408;SDS011;44202;52.730;6.470;2022-09-09T01:46:37;25.05;;;9.45;;
58408;SDS011;44202;52.730;6.470;2022-09-09T01:49:03;69.15;;;14.27;;
58408;SDS011;44202;52.730;6.470;2022-09-09T01:51:32;30.00;;;9.10;;
58408;SDS011;44202;52.730;6.470;2022-09-09T01:53:58;24.73;;;8.15;;
58408;SDS011;44202;52.730;6.470;2022-09-09T02:02:06;75.15;;;16.17;;
58408;SDS011;44202;52.730;6.470;2022-09-09T02:04:44;21.98;;;10.00;;
58408;SDS011;44202;52.730;6.470;2022-09-09T02:09:50;26.88;;;11.82;;
58408;SDS011;44202;52.730;6.470;2022-09-09T02:12:22;65.30;;;17.33;;
58408;SDS011;44202;52.730;6.470;2022-09-09T02:15:03;24.08;;;11.18;;
58408;SDS011;44202;52.730;6.470;2022-09-09T02:17:33;21.48;;;11.57;;
58408;SDS011;44202;52.730;6.470;2022-09-09T02:20:07;42.45;;;13.10;;
58408;SDS011;44202;52.730;6.470;2022-09-09T02:22:39;38.65;;;13.30;;
58408;SDS011;44202;52.730;6.470;2022-09-09T02:25:10;27.10;;;11.90;;
58408;SDS011;44202;52.730;6.470;2022-09-09T02:27:40;64.78;;;16.95;;
58408;SDS011;44202;52.730;6.470;2022-09-09T02:30:08;60.30;;;16.65;;
58408;SDS011;44202;52.730;6.470;2022-09-09T02:32:35;20.95;;;10.38;;
58408;SDS011;44202;52.730;6.470;2022-09-09T02:35:08;30.45;;;12.10;;
58408;SDS011;44202;52.730;6.470;2022-09-09T02:37:37;110.70;;;21.45;;
58408;SDS011;44202;52.730;6.470;2022-09-09T02:40:05;33.17;;;13.50;;
58408;SDS011;44202;52.730;6.470;2022-09-09T02:42:43;51.92;;;13.20;;
58408;SDS011;44202;52.730;6.470;2022-09-09T02:45:10;51.20;;;16.50;;
58408;SDS011;44202;52.730;6.470;2022-09-09T02:55:54;165.13;;;25.83;;
58408;SDS011;44202;52.730;6.470;2022-09-09T02:58:34;172.10;;;27.13;;
58408;SDS011;44202;52.730;6.470;2022-09-09T03:01:00;86.32;;;19.42;;
58408;SDS011;44202;52.730;6.470;2022-09-09T03:03:28;171.63;;;27.15;;
58408;SDS011;44202;52.730;6.470;2022-09-09T03:05:55;38.95;;;13.88;;
58408;SDS011;44202;52.730;6.470;2022-09-09T03:08:22;99.57;;;23.13;;
58408;SDS011;44202;52.730;6.470;2022-09-09T03:10:48;109.57;;;24.50;;
58408;SDS011;44202;52.730;6.470;2022-09-09T03:13:14;43.10;;;16.52;;
58408;SDS011;44202;52.730;6.470;2022-09-09T03:15:40;124.90;;;23.00;;
58408;SDS011;44202;52.730;6.470;2022-09-09T03:18:06;116.18;;;24.08;;
58408;SDS011;44202;52.730;6.470;2022-09-09T03:20:32;46.33;;;15.52;;
58408;SDS011;44202;52.730;6.470;2022-09-09T03:22:59;70.22;;;19.08;;
58408;SDS011;44202;52.730;6.470;2022-09-09T03:25:25;114.90;;;21.17;;
58408;SDS011;44202;52.730;6.470;2022-09-09T03:27:51;31.83;;;13.55;;
58408;SDS011;44202;52.730;6.470;2022-09-09T03:30:23;34.70;;;12.30;;
58408;SDS011;44202;52.730;6.470;2022-09-09T03:32:50;42.70;;;12.88;;
58408;SDS011;44202;52.730;6.470;2022-09-09T03:35:16;24.23;;;12.57;;
58408;SDS011;44202;52.730;6.470;2022-09-09T03:37:42;28.40;;;12.20;;
58408;SDS011;44202;52.730;6.470;2022-09-09T03:40:08;27.75;;;12.18;;
58408;SDS011;44202;52.730;6.470;2022-09-09T03:42:35;93.63;;;19.55;;
58408;SDS011;44202;52.730;6.470;2022-09-09T03:45:02;59.38;;;15.90;;
58408;SDS011;44202;52.730;6.470;2022-09-09T03:47:32;40.10;;;14.63;;
58408;SDS011;44202;52.730;6.470;2022-09-09T03:49:58;114.43;;;20.83;;
58408;SDS011;44202;52.730;6.470;2022-09-09T03:52:24;75.05;;;16.45;;
58408;SDS011;44202;52.730;6.470;2022-09-09T03:54:51;36.08;;;13.30;;
58408;SDS011;44202;52.730;6.470;2022-09-09T03:57:18;73.40;;;17.88;;
58408;SDS011;44202;52.730;6.470;2022-09-09T03:59:44;94.07;;;19.52;;
58408;SDS011;44202;52.730;6.470;2022-09-09T04:02:09;92.53;;;19.17;;
58408;SDS011;44202;52.730;6.470;2022-09-09T04:04:35;33.42;;;13.45;;
58408;SDS011;44202;52.730;6.470;2022-09-09T04:07:01;33.90;;;14.40;;
58408;SDS011;44202;52.730;6.470;2022-09-09T04:09:27;66.80;;;18.02;;
58408;SDS011;44202;52.730;6.470;2022-09-09T04:11:53;110.63;;;21.83;;
58408;SDS011;44202;52.730;6.470;2022-09-09T04:14:20;146.55;;;23.83;;
58408;SDS011;44202;52.730;6.470;2022-09-09T04:16:46;30.55;;;15.07;;
58408;SDS011;44202;52.730;6.470;2022-09-09T04:19:12;40.22;;;16.08;;
58408;SDS011;44202;52.730;6.470;2022-09-09T04:21:39;44.83;;;17.65;;
58408;SDS011;44202;52.730;6.470;2022-09-09T04:24:07;101.75;;;21.25;;
58408;SDS011;44202;52.730;6.470;2022-09-09T04:26:34;83.93;;;19.42;;
58408;SDS011;44202;52.730;6.470;2022-09-09T04:29:01;62.00;;;17.27;;
58408;SDS011;44202;52.730;6.470;2022-09-09T04:31:28;92.90;;;21.95;;
58408;SDS011;44202;52.730;6.470;2022-09-09T04:33:56;82.57;;;21.02;;
58408;SDS011;44202;52.730;6.470;2022-09-09T04:36:22;56.40;;;18.27;;
58408;SDS011;44202;52.730;6.470;2022-09-09T04:38:48;64.72;;;17.40;;
58408;SDS011;44202;52.730;6.470;2022-09-09T04:41:14;126.68;;;24.52;;
58408;SDS011;44202;52.730;6.470;2022-09-09T04:43:41;67.25;;;19.15;;
58408;SDS011;44202;52.730;6.470;2022-09-09T04:46:07;36.17;;;17.05;;
58408;SDS011;44202;52.730;6.470;2022-09-09T04:48:33;75.57;;;19.33;;
58408;SDS011;44202;52.730;6.470;2022-09-09T04:51:03;39.25;;;14.48;;
58408;SDS011;44202;52.730;6.470;2022-09-09T04:53:33;32.38;;;15.68;;
58408;SDS011;44202;52.730;6.470;2022-09-09T04:56:13;112.75;;;23.27;;
58408;SDS011;44202;52.730;6.470;2022-09-09T04:58:40;50.88;;;18.10;;
58408;SDS011;44202;52.730;6.470;2022-09-09T05:03:38;78.40;;;20.25;;
58408;SDS011;44202;52.730;6.470;2022-09-09T05:06:04;51.22;;;18.13;;
58408;SDS011;44202;52.730;6.470;2022-09-09T05:08:32;29.80;;;15.85;;
58408;SDS011;44202;52.730;6.470;2022-09-09T05:10:57;30.50;;;15.20;;
58408;SDS011;44202;52.730;6.470;2022-09-09T05:13:25;48.25;;;17.40;;
58408;SDS011;44202;52.730;6.470;2022-09-09T05:15:52;85.50;;;22.02;;
58408;SDS011;44202;52.730;6.470;2022-09-09T05:18:18;45.63;;;17.63;;
58408;SDS011;44202;52.730;6.470;2022-09-09T05:20:44;32.75;;;16.50;;
58408;SDS011;44202;52.730;6.470;2022-09-09T05:23:09;115.22;;;24.10;;
58408;SDS011;44202;52.730;6.470;2022-09-09T05:25:37;78.45;;;20.48;;
58408;SDS011;44202;52.730;6.470;2022-09-09T05:28:02;47.70;;;16.55;;
58408;SDS011;44202;52.730;6.470;2022-09-09T05:30:28;39.60;;;15.07;;
58408;SDS011;44202;52.730;6.470;2022-09-09T05:32:57;55.63;;;19.05;;
58408;SDS011;44202;52.730;6.470;2022-09-09T05:35:22;55.15;;;18.95;;
58408;SDS011;44202;52.730;6.470;2022-09-09T05:37:48;51.15;;;18.73;;
58408;SDS011;44202;52.730;6.470;2022-09-09T05:40:14;28.73;;;15.60;;
58408;SDS011;44202;52.730;6.470;2022-09-09T05:42:40;27.73;;;14.13;;
58408;SDS011;44202;52.730;6.470;2022-09-09T05:45:07;89.68;;;20.23;;
58408;SDS011;44202;52.730;6.470;2022-09-09T05:47:33;31.63;;;16.42;;
58408;SDS011;44202;52.730;6.470;2022-09-09T05:50:00;122.18;;;24.05;;
58408;SDS011;44202;52.730;6.470;2022-09-09T05:52:26;100.10;;;22.92;;
58408;SDS011;44202;52.730;6.470;2022-09-09T05:54:52;132.45;;;24.98;;
58408;SDS011;44202;52.730;6.470;2022-09-09T05:57:20;37.22;;;16.88;;
58408;SDS011;44202;52.730;6.470;2022-09-09T05:59:45;44.42;;;17.67;;
58408;SDS011;44202;52.730;6.470;2022-09-09T06:02:11;70.70;;;20.40;;
58408;SDS011;44202;52.730;6.470;2022-09-09T06:04:38;49.97;;;17.20;;
58408;SDS011;44202;52.730;6.470;2022-09-09T06:07:04;28.15;;;14.93;;
58408;SDS011;44202;52.730;6.470;2022-09-09T06:09:30;51.50;;;17.45;;
58408;SDS011;44202;52.730;6.470;2022-09-09T06:11:56;37.05;;;16.05;;
58408;SDS011;44202;52.730;6.470;2022-09-09T06:14:23;62.45;;;19.05;;
58408;SDS011;44202;52.730;6.470;2022-09-09T06:16:50;80.22;;;19.48;;
58408;SDS011;44202;52.730;6.470;2022-09-09T06:19:16;30.23;;;15.63;;
58408;SDS011;44202;52.730;6.470;2022-09-09T06:21:42;46.63;;;16.40;;
58408;SDS011;44202;52.730;6.470;2022-09-09T06:24:09;40.38;;;16.05;;
58408;SDS011;44202;52.730;6.470;2022-09-09T06:26:39;58.92;;;17.77;;
58408;SDS011;44202;52.730;6.470;2022-09-09T06:29:08;20.85;;;11.80;;
58408;SDS011;44202;52.730;6.470;2022-09-09T06:31:34;20.15;;;11.85;;
58408;SDS011;44202;52.730;6.470;2022-09-09T06:34:03;53.67;;;16.35;;
58408;SDS011;44202;52.730;6.470;2022-09-09T06:36:31;37.88;;;15.65;;
58408;SDS011;44202;52.730;6.470;2022-09-09T06:38:58;23.33;;;12.82;;
58408;SDS011;44202;52.730;6.470;2022-09-09T06:41:26;27.33;;;13.80;;
58408;SDS011;44202;52.730;6.470;2022-09-09T06:43:53;18.70;;;11.75;;
58408;SDS011;44202;52.730;6.470;2022-09-09T06:46:21;40.65;;;16.02;;
58408;SDS011;44202;52.730;6.470;2022-09-09T06:48:48;35.03;;;15.00;;
58408;SDS011;44202;52.730;6.470;2022-09-09T06:51:15;26.00;;;13.43;;
58408;SDS011;44202;52.730;6.470;2022-09-09T06:53:43;24.83;;;13.35;;
58408;SDS011;44202;52.730;6.470;2022-09-09T06:58:42;20.67;;;12.93;;
58408;SDS011;44202;52.730;6.470;2022-09-09T07:01:09;21.63;;;12.35;;
58408;SDS011;44202;52.730;6.470;2022-09-09T07:03:39;23.10;;;12.90;;
58408;SDS011;44202;52.730;6.470;2022-09-09T07:06:06;27.98;;;14.45;;
58408;SDS011;44202;52.730;6.470;2022-09-09T07:08:34;24.25;;;11.70;;
58408;SDS011;44202;52.730;6.470;2022-09-09T07:11:03;29.67;;;13.73;;
58408;SDS011;44202;52.730;6.470;2022-09-09T07:13:31;17.67;;;10.70;;
58408;SDS011;44202;52.730;6.470;2022-09-09T07:16:07;37.28;;;13.60;;
58408;SDS011;44202;52.730;6.470;2022-09-09T07:18:34;24.98;;;12.65;;
58408;SDS011;44202;52.730;6.470;2022-09-09T07:21:01;16.40;;;10.85;;
58408;SDS011;44202;52.730;6.470;2022-09-09T07:23:28;18.10;;;10.38;;
58408;SDS011;44202;52.730;6.470;2022-09-09T07:25:55;20.55;;;11.80;;
58408;SDS011;44202;52.730;6.470;2022-09-09T07:28:22;29.75;;;13.38;;
58408;SDS011;44202;52.730;6.470;2022-09-09T07:30:58;23.00;;;11.77;;
58408;SDS011;44202;52.730;6.470;2022-09-09T07:33:29;37.00;;;14.70;;
58408;SDS011;44202;52.730;6.470;2022-09-09T07:36:01;34.47;;;12.13;;
58408;SDS011;44202;52.730;6.470;2022-09-09T07:38:29;26.02;;;12.73;;
58408;SDS011;44202;52.730;6.470;2022-09-09T07:41:04;19.25;;;10.77;;
58408;SDS011;44202;52.730;6.470;2022-09-09T07:43:31;14.70;;;10.20;;
58408;SDS011;44202;52.730;6.470;2022-09-09T07:45:58;23.98;;;11.93;;
58408;SDS011;44202;52.730;6.470;2022-09-09T07:48:26;19.95;;;10.00;;
58408;SDS011;44202;52.730;6.470;2022-09-09T07:50:52;16.40;;;8.60;;
58408;SDS011;44202;52.730;6.470;2022-09-09T07:53:27;18.58;;;9.98;;
58408;SDS011;44202;52.730;6.470;2022-09-09T07:55:53;15.50;;;9.45;;
58408;SDS011;44202;52.730;6.470;2022-09-09T07:58:20;14.57;;;7.38;;
58408;SDS011;44202;52.730;6.470;2022-09-09T08:00:46;15.38;;;8.20;;
58408;SDS011;44202;52.730;6.470;2022-09-09T08:03:12;14.07;;;7.20;;
58408;SDS011;44202;52.730;6.470;2022-09-09T08:05:38;16.17;;;8.18;;
58408;SDS011;44202;52.730;6.470;2022-09-09T08:08:04;13.60;;;7.07;;
58408;SDS011;44202;52.730;6.470;2022-09-09T08:10:30;15.02;;;8.18;;
58408;SDS011;44202;52.730;6.470;2022-09-09T08:12:56;10.93;;;5.60;;
58408;SDS011;44202;52.730;6.470;2022-09-09T08:15:21;14.15;;;7.13;;
58408;SDS011;44202;52.730;6.470;2022-09-09T08:17:47;13.15;;;6.45;;
58408;SDS011;44202;52.730;6.470;2022-09-09T08:20:13;12.82;;;5.55;;
58408;SDS011;44202;52.730;6.470;2022-09-09T08:22:39;9.90;;;5.22;;
58408;SDS011;44202;52.730;6.470;2022-09-09T08:25:07;14.93;;;5.38;;
58408;SDS011;44202;52.730;6.470;2022-09-09T08:27:33;10.60;;;6.00;;
58408;SDS011;44202;52.730;6.470;2022-09-09T08:29:59;14.15;;;5.53;;
58408;SDS011;44202;52.730;6.470;2022-09-09T08:32:24;15.55;;;5.03;;
58408;SDS011;44202;52.730;6.470;2022-09-09T08:34:51;15.80;;;5.65;;
58408;SDS011;44202;52.730;6.470;2022-09-09T08:37:17;11.73;;;5.57;;
58408;SDS011;44202;52.730;6.470;2022-09-09T08:39:42;8.50;;;3.38;;
58408;SDS011;44202;52.730;6.470;2022-09-09T08:42:12;15.82;;;3.90;;
58408;SDS011;44202;52.730;6.470;2022-09-09T08:48:01;7.40;;;3.13;;
58408;SDS011;44202;52.730;6.470;2022-09-09T09:01:01;9.52;;;3.80;;
58408;SDS011;44202;52.730;6.470;2022-09-09T09:11:44;9.98;;;2.80;;
58408;SDS011;44202;52.730;6.470;2022-09-09T09:14:26;10.45;;;2.90;;
58408;SDS011;44202;52.730;6.470;2022-09-09T09:16:59;11.98;;;3.08;;
58408;SDS011;44202;52.730;6.470;2022-09-09T09:19:31;11.35;;;3.25;;
58408;SDS011;44202;52.730;6.470;2022-09-09T09:22:18;8.48;;;2.58;;
58408;SDS011;44202;52.730;6.470;2022-09-09T09:24:55;8.52;;;2.63;;
58408;SDS011;44202;52.730;6.470;2022-09-09T09:29:58;13.77;;;2.90;;
58408;SDS011;44202;52.730;6.470;2022-09-09T09:32:27;7.38;;;2.17;;
58408;SDS011;44202;52.730;6.470;2022-09-09T09:34:56;9.10;;;2.28;;
58408;SDS011;44202;52.730;6.470;2022-09-09T09:37:28;10.48;;;2.00;;
58408;SDS011;44202;52.730;6.470;2022-09-09T09:40:07;11.70;;;2.58;;
58408;SDS011;44202;52.730;6.470;2022-09-09T09:43:02;9.27;;;2.00;;
58408;SDS011;44202;52.730;6.470;2022-09-09T09:45:43;8.02;;;2.25;;
58408;SDS011;44202;52.730;6.470;2022-09-09T09:48:13;10.70;;;2.10;;
58408;SDS011;44202;52.730;6.470;2022-09-09T09:51:13;11.85;;;2.75;;
58408;SDS011;44202;52.730;6.470;2022-09-09T09:53:36;8.15;;;2.05;;
58408;SDS011;44202;52.730;6.470;2022-09-09T09:56:05;11.55;;;2.50;;
58408;SDS011;44202;52.730;6.470;2022-09-09T10:01:25;8.52;;;2.20;;
58408;SDS011;44202;52.730;6.470;2022-09-09T10:06:33;8.23;;;2.78;;
58408;SDS011;44202;52.730;6.470;2022-09-09T10:09:01;8.15;;;1.98;;
58408;SDS011;44202;52.730;6.470;2022-09-09T10:19:31;6.00;;;1.52;;
58408;SDS011;44202;52.730;6.470;2022-09-09T10:32:45;8.00;;;1.80;;
58408;SDS011;44202;52.730;6.470;2022-09-09T10:40:44;7.82;;;1.88;;
58408;SDS011;44202;52.730;6.470;2022-09-09T10:54:12;7.75;;;1.52;;
58408;SDS011;44202;52.730;6.470;2022-09-09T10:57:35;11.23;;;1.88;;
58408;SDS011;44202;52.730;6.470;2022-09-09T11:00:15;8.18;;;1.88;;
58408;SDS011;44202;52.730;6.470;2022-09-09T11:02:55;8.00;;;1.67;;
58408;SDS011;44202;52.730;6.470;2022-09-09T11:08:09;10.52;;;2.00;;
58408;SDS011;44202;52.730;6.470;2022-09-09T11:13:57;9.70;;;1.65;;
58408;SDS011;44202;52.730;6.470;2022-09-09T11:18:50;7.38;;;1.70;;
58408;SDS011;44202;52.730;6.470;2022-09-09T11:21:25;5.93;;;1.33;;
58408;SDS011;44202;52.730;6.470;2022-09-09T11:24:05;6.50;;;1.55;;
58408;SDS011;44202;52.730;6.470;2022-09-09T11:26:38;9.93;;;1.73;;
58408;SDS011;44202;52.730;6.470;2022-09-09T11:40:22;8.38;;;1.70;;
58408;SDS011;44202;52.730;6.470;2022-09-09T11:42:59;5.60;;;1.15;;
58408;SDS011;44202;52.730;6.470;2022-09-09T11:45:31;6.63;;;1.50;;
58408;SDS011;44202;52.730;6.470;2022-09-09T11:47:59;6.35;;;1.50;;
58408;SDS011;44202;52.730;6.470;2022-09-09T11:55:46;6.90;;;1.60;;
58408;SDS011;44202;52.730;6.470;2022-09-09T12:00:45;6.05;;;1.60;;
58408;SDS011;44202;52.730;6.470;2022-09-09T12:06:32;7.75;;;1.50;;
58408;SDS011;44202;52.730;6.470;2022-09-09T12:09:07;6.30;;;1.40;;
58408;SDS011;44202;52.730;6.470;2022-09-09T12:11:49;5.82;;;1.30;;
58408;SDS011;44202;52.730;6.470;2022-09-09T12:14:19;7.70;;;1.70;;
58408;SDS011;44202;52.730;6.470;2022-09-09T12:17:20;7.97;;;1.50;;
58408;SDS011;44202;52.730;6.470;2022-09-09T12:19:48;6.25;;;1.48;;
58408;SDS011;44202;52.730;6.470;2022-09-09T12:28:18;7.63;;;1.48;;
58408;SDS011;44202;52.730;6.470;2022-09-09T12:33:42;6.63;;;1.27;;
58408;SDS011;44202;52.730;6.470;2022-09-09T12:36:18;8.25;;;1.50;;
58408;SDS011;44202;52.730;6.470;2022-09-09T12:38:47;5.30;;;1.00;;
58408;SDS011;44202;52.730;6.470;2022-09-09T12:41:19;5.15;;;0.90;;
58408;SDS011;44202;52.730;6.470;2022-09-09T12:46:45;5.55;;;0.95;;
58408;SDS011;44202;52.730;6.470;2022-09-09T12:52:12;5.82;;;1.38;;
58408;SDS011;44202;52.730;6.470;2022-09-09T12:54:43;6.13;;;1.40;;
58408;SDS011;44202;52.730;6.470;2022-09-09T12:57:13;5.65;;;0.93;;
58408;SDS011;44202;52.730;6.470;2022-09-09T12:59:41;4.13;;;0.95;;
58408;SDS011;44202;52.730;6.470;2022-09-09T13:02:44;7.35;;;1.27;;
58408;SDS011;44202;52.730;6.470;2022-09-09T13:05:17;4.75;;;1.63;;
58408;SDS011;44202;52.730;6.470;2022-09-09T13:07:45;5.95;;;1.10;;
58408;SDS011;44202;52.730;6.470;2022-09-09T13:10:13;5.43;;;1.08;;
58408;SDS011;44202;52.730;6.470;2022-09-09T13:12:40;7.15;;;1.48;;
58408;SDS011;44202;52.730;6.470;2022-09-09T13:15:19;9.52;;;1.35;;
58408;SDS011;44202;52.730;6.470;2022-09-09T13:17:54;7.40;;;1.30;;
58408;SDS011;44202;52.730;6.470;2022-09-09T13:20:22;3.42;;;0.93;;
58408;SDS011;44202;52.730;6.470;2022-09-09T13:22:50;10.57;;;1.80;;
58408;SDS011;44202;52.730;6.470;2022-09-09T13:25:19;10.02;;;2.45;;
58408;SDS011;44202;52.730;6.470;2022-09-09T13:30:32;13.55;;;2.00;;
58408;SDS011;44202;52.730;6.470;2022-09-09T13:36:06;8.27;;;2.13;;
58408;SDS011;44202;52.730;6.470;2022-09-09T13:38:31;6.47;;;1.85;;
58408;SDS011;44202;52.730;6.470;2022-09-09T13:43:32;9.48;;;2.55;;
58408;SDS011;44202;52.730;6.470;2022-09-09T13:54:05;9.25;;;2.28;;
58408;SDS011;44202;52.730;6.470;2022-09-09T13:56:34;5.75;;;1.85;;
58408;SDS011;44202;52.730;6.470;2022-09-09T13:59:01;8.73;;;2.10;;
58408;SDS011;44202;52.730;6.470;2022-09-09T14:01:31;6.78;;;2.40;;
58408;SDS011;44202;52.730;6.470;2022-09-09T14:03:59;4.15;;;1.20;;
58408;SDS011;44202;52.730;6.470;2022-09-09T14:06:29;3.92;;;1.35;;
58408;SDS011;44202;52.730;6.470;2022-09-09T14:08:55;3.47;;;1.13;;
58408;SDS011;44202;52.730;6.470;2022-09-09T14:11:23;4.18;;;1.27;;
58408;SDS011;44202;52.730;6.470;2022-09-09T14:13:48;5.05;;;1.17;;
58408;SDS011;44202;52.730;6.470;2022-09-09T14:16:15;3.95;;;0.90;;
58408;SDS011;44202;52.730;6.470;2022-09-09T14:18:42;3.95;;;1.10;;
58408;SDS011;44202;52.730;6.470;2022-09-09T14:21:09;3.58;;;1.25;;
58408;SDS011;44202;52.730;6.470;2022-09-09T14:23:36;3.10;;;1.38;;
58408;SDS011;44202;52.730;6.470;2022-09-09T14:26:03;5.32;;;1.08;;
58408;SDS011;44202;52.730;6.470;2022-09-09T14:28:30;4.72;;;1.20;;
58408;SDS011;44202;52.730;6.470;2022-09-09T14:30:59;5.60;;;1.20;;
58408;SDS011;44202;52.730;6.470;2022-09-09T14:33:29;4.80;;;1.17;;
58408;SDS011;44202;52.730;6.470;2022-09-09T14:35:56;2.85;;;0.90;;
58408;SDS011;44202;52.730;6.470;2022-09-09T14:38:30;2.92;;;1.00;;
58408;SDS011;44202;52.730;6.470;2022-09-09T14:40:58;4.20;;;0.90;;
58408;SDS011;44202;52.730;6.470;2022-09-09T14:43:25;4.20;;;0.82;;
58408;SDS011;44202;52.730;6.470;2022-09-09T14:45:52;4.97;;;1.10;;
58408;SDS011;44202;52.730;6.470;2022-09-09T14:48:17;7.95;;;1.60;;
58408;SDS011;44202;52.730;6.470;2022-09-09T14:50:47;3.00;;;0.98;;
58408;SDS011;44202;52.730;6.470;2022-09-09T14:53:13;5.22;;;1.05;;
58408;SDS011;44202;52.730;6.470;2022-09-09T14:55:42;6.75;;;1.15;;
58408;SDS011;44202;52.730;6.470;2022-09-09T14:58:07;3.55;;;1.10;;
58408;SDS011;44202;52.730;6.470;2022-09-09T15:00:33;5.45;;;1.10;;
58408;SDS011;44202;52.730;6.470;2022-09-09T15:03:02;8.07;;;1.42;;
58408;SDS011;44202;52.730;6.470;2022-09-09T15:05:27;4.97;;;1.20;;
58408;SDS011;44202;52.730;6.470;2022-09-09T15:07:56;4.25;;;1.08;;
58408;SDS011;44202;52.730;6.470;2022-09-09T15:10:23;3.88;;;1.08;;
58408;SDS011;44202;52.730;6.470;2022-09-09T15:12:51;5.03;;;1.30;;
58408;SDS011;44202;52.730;6.470;2022-09-09T15:15:17;5.72;;;1.08;;
58408;SDS011;44202;52.730;6.470;2022-09-09T15:17:42;3.08;;;1.02;;
58408;SDS011;44202;52.730;6.470;2022-09-09T15:20:08;4.72;;;1.10;;
58408;SDS011;44202;52.730;6.470;2022-09-09T15:22:34;4.78;;;1.17;;
58408;SDS011;44202;52.730;6.470;2022-09-09T15:25:01;5.55;;;1.17;;
58408;SDS011;44202;52.730;6.470;2022-09-09T15:27:27;3.47;;;1.10;;
58408;SDS011;44202;52.730;6.470;2022-09-09T15:29:56;3.33;;;1.05;;
58408;SDS011;44202;52.730;6.470;2022-09-09T15:32:23;3.05;;;1.30;;
58408;SDS011;44202;52.730;6.470;2022-09-09T15:34:48;4.85;;;1.15;;
58408;SDS011;44202;52.730;6.470;2022-09-09T15:37:16;4.35;;;0.93;;
58408;SDS011;44202;52.730;6.470;2022-09-09T15:39:42;3.92;;;0.90;;
58408;SDS011;44202;52.730;6.470;2022-09-09T15:42:07;3.58;;;1.02;;
58408;SDS011;44202;52.730;6.470;2022-09-09T15:44:40;3.70;;;1.15;;
58408;SDS011;44202;52.730;6.470;2022-09-09T15:47:07;2.85;;;1.13;;
58408;SDS011;44202;52.730;6.470;2022-09-09T15:49:35;2.78;;;1.20;;
58408;SDS011;44202;52.730;6.470;2022-09-09T15:52:01;2.65;;;0.90;;
58408;SDS011;44202;52.730;6.470;2022-09-09T15:54:30;5.10;;;1.27;;
58408;SDS011;44202;52.730;6.470;2022-09-09T15:56:59;3.55;;;1.30;;
58408;SDS011;44202;52.730;6.470;2022-09-09T15:59:27;4.53;;;1.27;;
58408;SDS011;44202;52.730;6.470;2022-09-09T16:01:54;3.88;;;1.50;;
58408;SDS011;44202;52.730;6.470;2022-09-09T16:04:21;5.68;;;1.75;;
58408;SDS011;44202;52.730;6.470;2022-09-09T16:06:51;3.42;;;1.20;;
58408;SDS011;44202;52.730;6.470;2022-09-09T16:09:18;5.57;;;2.08;;
58408;SDS011;44202;52.730;6.470;2022-09-09T16:11:44;5.50;;;1.77;;
58408;SDS011;44202;52.730;6.470;2022-09-09T16:14:12;4.60;;;1.42;;
58408;SDS011;44202;52.730;6.470;2022-09-09T16:16:38;4.07;;;1.48;;
58408;SDS011;44202;52.730;6.470;2022-09-09T16:19:07;4.55;;;1.63;;
58408;SDS011;44202;52.730;6.470;2022-09-09T16:21:36;4.75;;;1.73;;
58408;SDS011;44202;52.730;6.470;2022-09-09T16:24:10;6.75;;;1.88;;
58408;SDS011;44202;52.730;6.470;2022-09-09T16:26:38;5.88;;;1.67;;
58408;SDS011;44202;52.730;6.470;2022-09-09T16:29:06;5.07;;;1.77;;
58408;SDS011;44202;52.730;6.470;2022-09-09T16:31:32;7.85;;;1.63;;
58408;SDS011;44202;52.730;6.470;2022-09-09T16:33:58;7.95;;;2.00;;
58408;SDS011;44202;52.730;6.470;2022-09-09T16:36:27;8.63;;;2.00;;
58408;SDS011;44202;52.730;6.470;2022-09-09T16:38:59;5.68;;;2.03;;
58408;SDS011;44202;52.730;6.470;2022-09-09T16:41:27;5.57;;;2.30;;
58408;SDS011;44202;52.730;6.470;2022-09-09T16:43:55;6.13;;;2.17;;
58408;SDS011;44202;52.730;6.470;2022-09-09T16:46:25;8.25;;;2.17;;
58408;SDS011;44202;52.730;6.470;2022-09-09T16:48:53;6.85;;;2.30;;
58408;SDS011;44202;52.730;6.470;2022-09-09T16:51:24;7.70;;;2.30;;
58408;SDS011;44202;52.730;6.470;2022-09-09T16:53:57;9.65;;;2.58;;
58408;SDS011;44202;52.730;6.470;2022-09-09T16:56:25;8.93;;;2.72;;
58408;SDS011;44202;52.730;6.470;2022-09-09T16:58:57;5.05;;;2.13;;
58408;SDS011;44202;52.730;6.470;2022-09-09T17:01:24;4.32;;;1.70;;
58408;SDS011;44202;52.730;6.470;2022-09-09T17:03:55;4.55;;;1.75;;
58408;SDS011;44202;52.730;6.470;2022-09-09T17:06:22;3.87;;;1.30;;
58408;SDS011;44202;52.730;6.470;2022-09-09T17:08:53;3.63;;;1.30;;
58408;SDS011;44202;52.730;6.470;2022-09-09T17:11:22;8.20;;;1.85;;
58408;SDS011;44202;52.730;6.470;2022-09-09T17:13:49;3.83;;;1.27;;
58408;SDS011;44202;52.730;6.470;2022-09-09T17:16:15;5.95;;;1.17;;
58408;SDS011;44202;52.730;6.470;2022-09-09T17:18:43;2.78;;;1.10;;
58408;SDS011;44202;52.730;6.470;2022-09-09T17:21:09;5.63;;;1.45;;
58408;SDS011;44202;52.730;6.470;2022-09-09T17:23:39;6.78;;;1.48;;
58408;SDS011;44202;52.730;6.470;2022-09-09T17:26:05;3.08;;;1.40;;
58408;SDS011;44202;52.730;6.470;2022-09-09T17:28:38;5.45;;;1.75;;
58408;SDS011;44202;52.730;6.470;2022-09-09T17:31:06;4.93;;;1.65;;
58408;SDS011;44202;52.730;6.470;2022-09-09T17:33:33;3.92;;;1.50;;
58408;SDS011;44202;52.730;6.470;2022-09-09T17:36:01;4.65;;;1.60;;
58408;SDS011;44202;52.730;6.470;2022-09-09T17:38:32;5.13;;;2.10;;
58408;SDS011;44202;52.730;6.470;2022-09-09T17:41:02;4.90;;;1.60;;
58408;SDS011;44202;52.730;6.470;2022-09-09T17:43:28;3.30;;;1.90;;
58408;SDS011;44202;52.730;6.470;2022-09-09T17:45:54;4.72;;;2.30;;
58408;SDS011;44202;52.730;6.470;2022-09-09T17:48:19;6.00;;;2.65;;
58408;SDS011;44202;52.730;6.470;2022-09-09T17:50:45;7.47;;;2.40;;
58408;SDS011;44202;52.730;6.470;2022-09-09T17:53:11;10.10;;;2.25;;